sensor_id;sensor_type;location;lat;lon;timestamp;P1;durP1;ratioP1;P2;durP2;ratioP2
43835;SDS011;39345;43.964;25.340;2023-04-24T00:00:27;10.90;;;8.45;;
43835;SDS011;39345;43.964;25.340;2023-04-24T00:02:54;14.30;;;8.30;;
43835;SDS011;39345;43.964;25.340;2023-04-24T00:05:24;12.82;;;8.50;;
43835;SDS011;39345;43.964;25.340;2023-04-24T00:07:51;12.63;;;8.30;;
43835;SDS011;39345;43.964;25.340;2023-04-24T00:10:19;11.38;;;8.63;;
43835;SDS011;39345;43.964;25.340;2023-04-24T00:12:47;12.90;;;8.80;;
43835;SDS011;39345;43.964;25.340;2023-04-24T00:15:14;12.70;;;8.13;;
43835;SDS011;39345;43.964;25.340;2023-04-24T00:17:42;11.98;;;9.05;;
43835;SDS011;39345;43.964;25.340;2023-04-24T00:20:09;12.68;;;8.80;;
43835;SDS011;39345;43.964;25.340;2023-04-24T00:22:37;13.48;;;8.75;;
43835;SDS011;39345;43.964;25.340;2023-04-24T00:25:05;11.35;;;8.77;;
43835;SDS011;39345;43.964;25.340;2023-04-24T00:27:32;10.68;;;8.30;;
43835;SDS011;39345;43.964;25.340;2023-04-24T00:30:01;12.18;;;8.52;;
43835;SDS011;39345;43.964;25.340;2023-04-24T00:32:29;12.20;;;8.32;;
43835;SDS011;39345;43.964;25.340;2023-04-24T00:34:57;11.63;;;8.15;;
43835;SDS011;39345;43.964;25.340;2023-04-24T00:37:24;11.55;;;8.23;;
43835;SDS011;39345;43.964;25.340;2023-04-24T00:39:52;10.60;;;8.00;;
43835;SDS011;39345;43.964;25.340;2023-04-24T00:42:20;12.05;;;7.82;;
43835;SDS011;39345;43.964;25.340;2023-04-24T00:44:47;13.27;;;9.25;;
43835;SDS011;39345;43.964;25.340;2023-04-24T00:47:15;11.50;;;8.40;;
43835;SDS011;39345;43.964;25.340;2023-04-24T00:49:42;12.18;;;7.60;;
43835;SDS011;39345;43.964;25.340;2023-04-24T00:52:10;12.00;;;7.80;;
43835;SDS011;39345;43.964;25.340;2023-04-24T00:54:38;10.77;;;7.13;;
43835;SDS011;39345;43.964;25.340;2023-04-24T00:57:06;11.30;;;7.15;;
43835;SDS011;39345;43.964;25.340;2023-04-24T00:59:34;11.80;;;7.97;;
43835;SDS011;39345;43.964;25.340;2023-04-24T01:02:02;12.65;;;7.65;;
43835;SDS011;39345;43.964;25.340;2023-04-24T01:04:30;10.60;;;7.40;;
43835;SDS011;39345;43.964;25.340;2023-04-24T01:06:58;13.93;;;7.50;;
43835;SDS011;39345;43.964;25.340;2023-04-24T01:09:26;11.35;;;8.23;;
43835;SDS011;39345;43.964;25.340;2023-04-24T01:11:54;10.90;;;7.72;;
43835;SDS011;39345;43.964;25.340;2023-04-24T01:14:22;12.27;;;8.00;;
43835;SDS011;39345;43.964;25.340;2023-04-24T01:16:50;12.10;;;7.78;;
43835;SDS011;39345;43.964;25.340;2023-04-24T01:19:19;12.77;;;7.40;;
43835;SDS011;39345;43.964;25.340;2023-04-24T01:21:47;11.93;;;7.97;;
43835;SDS011;39345;43.964;25.340;2023-04-24T01:24:16;11.25;;;7.63;;
43835;SDS011;39345;43.964;25.340;2023-04-24T01:26:46;10.80;;;7.60;;
43835;SDS011;39345;43.964;25.340;2023-04-24T01:29:13;8.60;;;7.25;;
43835;SDS011;39345;43.964;25.340;2023-04-24T01:31:42;15.15;;;7.68;;
43835;SDS011;39345;43.964;25.340;2023-04-24T01:34:10;10.60;;;7.65;;
43835;SDS011;39345;43.964;25.340;2023-04-24T01:36:37;11.98;;;7.50;;
43835;SDS011;39345;43.964;25.340;2023-04-24T01:39:05;12.30;;;7.78;;
43835;SDS011;39345;43.964;25.340;2023-04-24T01:41:32;11.95;;;7.80;;
43835;SDS011;39345;43.964;25.340;2023-04-24T01:44:01;11.75;;;7.78;;
43835;SDS011;39345;43.964;25.340;2023-04-24T01:46:28;12.20;;;7.95;;
43835;SDS011;39345;43.964;25.340;2023-04-24T01:48:58;11.05;;;7.28;;
43835;SDS011;39345;43.964;25.340;2023-04-24T01:51:26;11.68;;;7.65;;
43835;SDS011;39345;43.964;25.340;2023-04-24T01:53:55;10.55;;;8.07;;
43835;SDS011;39345;43.964;25.340;2023-04-24T01:56:23;10.70;;;7.78;;
43835;SDS011;39345;43.964;25.340;2023-04-24T01:58:51;11.93;;;7.50;;
43835;SDS011;39345;43.964;25.340;2023-04-24T02:01:19;11.18;;;7.78;;
43835;SDS011;39345;43.964;25.340;2023-04-24T02:03:47;12.63;;;7.70;;
43835;SDS011;39345;43.964;25.340;2023-04-24T02:06:15;10.63;;;7.38;;
43835;SDS011;39345;43.964;25.340;2023-04-24T02:08:42;12.18;;;8.32;;
43835;SDS011;39345;43.964;25.340;2023-04-24T02:11:10;12.60;;;7.90;;
43835;SDS011;39345;43.964;25.340;2023-04-24T02:13:38;12.15;;;8.20;;
43835;SDS011;39345;43.964;25.340;2023-04-24T02:16:05;11.15;;;7.93;;
43835;SDS011;39345;43.964;25.340;2023-04-24T02:18:33;12.57;;;8.02;;
43835;SDS011;39345;43.964;25.340;2023-04-24T02:21:00;10.18;;;7.72;;
43835;SDS011;39345;43.964;25.340;2023-04-24T02:23:27;17.85;;;8.43;;
43835;SDS011;39345;43.964;25.340;2023-04-24T02:25:57;12.88;;;7.70;;
43835;SDS011;39345;43.964;25.340;2023-04-24T02:28:25;17.13;;;9.00;;
43835;SDS011;39345;43.964;25.340;2023-04-24T02:30:52;10.80;;;8.18;;
43835;SDS011;39345;43.964;25.340;2023-04-24T02:33:21;8.93;;;7.55;;
43835;SDS011;39345;43.964;25.340;2023-04-24T02:35:48;11.27;;;8.15;;
43835;SDS011;39345;43.964;25.340;2023-04-24T02:38:16;12.02;;;8.25;;
43835;SDS011;39345;43.964;25.340;2023-04-24T02:40:43;10.70;;;8.30;;
43835;SDS011;39345;43.964;25.340;2023-04-24T02:43:11;15.43;;;10.18;;
43835;SDS011;39345;43.964;25.340;2023-04-24T02:45:38;13.68;;;8.68;;
43835;SDS011;39345;43.964;25.340;2023-04-24T02:48:06;13.93;;;8.85;;
43835;SDS011;39345;43.964;25.340;2023-04-24T02:50:33;11.63;;;9.02;;
43835;SDS011;39345;43.964;25.340;2023-04-24T02:53:01;11.30;;;8.43;;
43835;SDS011;39345;43.964;25.340;2023-04-24T02:55:29;18.42;;;8.82;;
43835;SDS011;39345;43.964;25.340;2023-04-24T02:57:57;10.98;;;8.50;;
43835;SDS011;39345;43.964;25.340;2023-04-24T03:00:24;11.02;;;8.85;;
43835;SDS011;39345;43.964;25.340;2023-04-24T03:02:52;12.90;;;9.38;;
43835;SDS011;39345;43.964;25.340;2023-04-24T03:05:19;11.52;;;9.43;;
43835;SDS011;39345;43.964;25.340;2023-04-24T03:07:47;13.30;;;9.30;;
43835;SDS011;39345;43.964;25.340;2023-04-24T03:10:14;14.30;;;9.43;;
43835;SDS011;39345;43.964;25.340;2023-04-24T03:12:42;16.23;;;8.70;;
43835;SDS011;39345;43.964;25.340;2023-04-24T03:15:09;17.20;;;8.88;;
43835;SDS011;39345;43.964;25.340;2023-04-24T03:17:37;16.40;;;9.35;;
43835;SDS011;39345;43.964;25.340;2023-04-24T03:20:05;14.32;;;9.77;;
43835;SDS011;39345;43.964;25.340;2023-04-24T03:22:35;10.10;;;8.27;;
43835;SDS011;39345;43.964;25.340;2023-04-24T03:25:05;12.75;;;8.90;;
43835;SDS011;39345;43.964;25.340;2023-04-24T03:27:36;13.50;;;8.95;;
43835;SDS011;39345;43.964;25.340;2023-04-24T03:30:33;15.63;;;8.63;;
43835;SDS011;39345;43.964;25.340;2023-04-24T03:33:01;15.00;;;8.68;;
43835;SDS011;39345;43.964;25.340;2023-04-24T03:35:33;12.15;;;9.02;;
43835;SDS011;39345;43.964;25.340;2023-04-24T03:38:03;12.02;;;8.30;;
43835;SDS011;39345;43.964;25.340;2023-04-24T03:40:54;18.63;;;7.78;;
43835;SDS011;39345;43.964;25.340;2023-04-24T03:43:35;17.23;;;8.48;;
43835;SDS011;39345;43.964;25.340;2023-04-24T03:46:03;15.77;;;8.57;;
43835;SDS011;39345;43.964;25.340;2023-04-24T03:48:35;11.63;;;8.40;;
43835;SDS011;39345;43.964;25.340;2023-04-24T03:51:05;13.35;;;8.40;;
43835;SDS011;39345;43.964;25.340;2023-04-24T03:53:35;15.20;;;10.10;;
43835;SDS011;39345;43.964;25.340;2023-04-24T03:56:02;13.52;;;8.00;;
43835;SDS011;39345;43.964;25.340;2023-04-24T03:58:31;10.88;;;8.23;;
43835;SDS011;39345;43.964;25.340;2023-04-24T04:00:59;12.43;;;8.98;;
43835;SDS011;39345;43.964;25.340;2023-04-24T04:03:42;13.65;;;7.82;;
43835;SDS011;39345;43.964;25.340;2023-04-24T04:06:10;12.38;;;8.48;;
43835;SDS011;39345;43.964;25.340;2023-04-24T04:08:40;16.17;;;8.75;;
43835;SDS011;39345;43.964;25.340;2023-04-24T04:11:08;16.02;;;8.35;;
43835;SDS011;39345;43.964;25.340;2023-04-24T04:13:35;17.02;;;8.68;;
43835;SDS011;39345;43.964;25.340;2023-04-24T04:16:03;10.93;;;7.57;;
43835;SDS011;39345;43.964;25.340;2023-04-24T04:18:31;10.38;;;7.80;;
43835;SDS011;39345;43.964;25.340;2023-04-24T04:20:59;13.10;;;8.00;;
43835;SDS011;39345;43.964;25.340;2023-04-24T04:23:27;16.55;;;8.10;;
43835;SDS011;39345;43.964;25.340;2023-04-24T04:26:28;15.90;;;7.35;;
43835;SDS011;39345;43.964;25.340;2023-04-24T04:29:04;10.57;;;7.60;;
43835;SDS011;39345;43.964;25.340;2023-04-24T04:31:36;12.27;;;7.20;;
43835;SDS011;39345;43.964;25.340;2023-04-24T04:34:08;14.13;;;8.02;;
43835;SDS011;39345;43.964;25.340;2023-04-24T04:36:37;15.85;;;10.68;;
43835;SDS011;39345;43.964;25.340;2023-04-24T04:39:23;15.15;;;7.60;;
43835;SDS011;39345;43.964;25.340;2023-04-24T04:42:00;19.17;;;7.32;;
43835;SDS011;39345;43.964;25.340;2023-04-24T04:44:35;12.27;;;7.32;;
43835;SDS011;39345;43.964;25.340;2023-04-24T04:47:06;10.02;;;6.85;;
43835;SDS011;39345;43.964;25.340;2023-04-24T04:49:35;12.65;;;7.60;;
43835;SDS011;39345;43.964;25.340;2023-04-24T04:52:05;17.08;;;8.02;;
43835;SDS011;39345;43.964;25.340;2023-04-24T04:54:33;9.65;;;6.28;;
43835;SDS011;39345;43.964;25.340;2023-04-24T04:57:00;11.30;;;6.40;;
43835;SDS011;39345;43.964;25.340;2023-04-24T04:59:30;11.82;;;6.50;;
43835;SDS011;39345;43.964;25.340;2023-04-24T05:02:03;13.23;;;7.18;;
43835;SDS011;39345;43.964;25.340;2023-04-24T05:04:31;11.95;;;8.27;;
43835;SDS011;39345;43.964;25.340;2023-04-24T05:06:59;13.70;;;7.07;;
43835;SDS011;39345;43.964;25.340;2023-04-24T05:09:31;12.80;;;7.05;;
43835;SDS011;39345;43.964;25.340;2023-04-24T05:12:02;12.93;;;6.82;;
43835;SDS011;39345;43.964;25.340;2023-04-24T05:14:33;16.40;;;6.90;;
43835;SDS011;39345;43.964;25.340;2023-04-24T05:17:01;13.95;;;6.75;;
43835;SDS011;39345;43.964;25.340;2023-04-24T05:19:30;12.30;;;8.18;;
43835;SDS011;39345;43.964;25.340;2023-04-24T05:22:02;16.95;;;10.13;;
43835;SDS011;39345;43.964;25.340;2023-04-24T05:24:33;14.13;;;6.78;;
43835;SDS011;39345;43.964;25.340;2023-04-24T05:27:19;17.88;;;7.82;;
43835;SDS011;39345;43.964;25.340;2023-04-24T05:29:48;12.88;;;7.53;;
43835;SDS011;39345;43.964;25.340;2023-04-24T05:32:15;15.60;;;7.80;;
43835;SDS011;39345;43.964;25.340;2023-04-24T05:34:43;12.73;;;6.20;;
43835;SDS011;39345;43.964;25.340;2023-04-24T05:37:11;11.13;;;5.78;;
43835;SDS011;39345;43.964;25.340;2023-04-24T05:39:40;9.23;;;6.55;;
43835;SDS011;39345;43.964;25.340;2023-04-24T05:42:08;6.15;;;4.65;;
43835;SDS011;39345;43.964;25.340;2023-04-24T05:44:36;7.30;;;4.90;;
43835;SDS011;39345;43.964;25.340;2023-04-24T05:47:03;10.65;;;4.75;;
43835;SDS011;39345;43.964;25.340;2023-04-24T05:49:31;9.52;;;5.20;;
43835;SDS011;39345;43.964;25.340;2023-04-24T05:51:59;12.88;;;5.32;;
43835;SDS011;39345;43.964;25.340;2023-04-24T05:54:26;12.32;;;5.50;;
43835;SDS011;39345;43.964;25.340;2023-04-24T05:56:55;7.80;;;5.43;;
43835;SDS011;39345;43.964;25.340;2023-04-24T05:59:36;10.10;;;4.57;;
43835;SDS011;39345;43.964;25.340;2023-04-24T06:02:09;6.97;;;5.43;;
43835;SDS011;39345;43.964;25.340;2023-04-24T06:04:36;8.70;;;5.03;;
43835;SDS011;39345;43.964;25.340;2023-04-24T06:07:04;6.63;;;4.68;;
43835;SDS011;39345;43.964;25.340;2023-04-24T06:09:33;8.57;;;4.60;;
43835;SDS011;39345;43.964;25.340;2023-04-24T06:12:00;7.07;;;5.40;;
43835;SDS011;39345;43.964;25.340;2023-04-24T06:14:43;8.52;;;5.63;;
43835;SDS011;39345;43.964;25.340;2023-04-24T06:17:17;7.95;;;5.28;;
43835;SDS011;39345;43.964;25.340;2023-04-24T06:19:46;5.97;;;4.57;;
43835;SDS011;39345;43.964;25.340;2023-04-24T06:22:14;10.02;;;4.85;;
43835;SDS011;39345;43.964;25.340;2023-04-24T06:24:42;6.88;;;4.82;;
43835;SDS011;39345;43.964;25.340;2023-04-24T06:27:09;6.93;;;5.10;;
43835;SDS011;39345;43.964;25.340;2023-04-24T06:29:40;7.03;;;4.80;;
43835;SDS011;39345;43.964;25.340;2023-04-24T06:32:07;8.57;;;5.03;;
43835;SDS011;39345;43.964;25.340;2023-04-24T06:34:35;9.88;;;5.57;;
43835;SDS011;39345;43.964;25.340;2023-04-24T06:37:03;7.38;;;4.30;;
43835;SDS011;39345;43.964;25.340;2023-04-24T06:39:30;7.50;;;5.07;;
43835;SDS011;39345;43.964;25.340;2023-04-24T06:41:58;9.30;;;4.75;;
43835;SDS011;39345;43.964;25.340;2023-04-24T06:44:25;8.18;;;5.32;;
43835;SDS011;39345;43.964;25.340;2023-04-24T06:46:53;6.70;;;4.78;;
43835;SDS011;39345;43.964;25.340;2023-04-24T06:49:20;6.00;;;4.10;;
43835;SDS011;39345;43.964;25.340;2023-04-24T06:51:47;6.90;;;4.10;;
43835;SDS011;39345;43.964;25.340;2023-04-24T06:54:15;5.90;;;4.13;;
43835;SDS011;39345;43.964;25.340;2023-04-24T06:56:42;8.80;;;5.28;;
43835;SDS011;39345;43.964;25.340;2023-04-24T06:59:12;8.23;;;4.53;;
43835;SDS011;39345;43.964;25.340;2023-04-24T07:01:39;5.90;;;4.38;;
43835;SDS011;39345;43.964;25.340;2023-04-24T07:04:06;7.68;;;4.53;;
43835;SDS011;39345;43.964;25.340;2023-04-24T07:06:34;6.82;;;4.20;;
43835;SDS011;39345;43.964;25.340;2023-04-24T07:09:02;10.13;;;5.40;;
43835;SDS011;39345;43.964;25.340;2023-04-24T07:11:30;10.65;;;4.88;;
43835;SDS011;39345;43.964;25.340;2023-04-24T07:13:57;9.52;;;5.10;;
43835;SDS011;39345;43.964;25.340;2023-04-24T07:16:25;7.40;;;4.18;;
43835;SDS011;39345;43.964;25.340;2023-04-24T07:18:53;6.70;;;4.75;;
43835;SDS011;39345;43.964;25.340;2023-04-24T07:21:21;7.45;;;4.30;;
43835;SDS011;39345;43.964;25.340;2023-04-24T07:23:48;7.32;;;4.40;;
43835;SDS011;39345;43.964;25.340;2023-04-24T07:26:16;9.70;;;4.60;;
43835;SDS011;39345;43.964;25.340;2023-04-24T07:28:44;7.40;;;4.60;;
43835;SDS011;39345;43.964;25.340;2023-04-24T07:31:11;9.63;;;5.25;;
43835;SDS011;39345;43.964;25.340;2023-04-24T07:33:39;8.68;;;5.00;;
43835;SDS011;39345;43.964;25.340;2023-04-24T07:36:06;8.55;;;4.85;;
43835;SDS011;39345;43.964;25.340;2023-04-24T07:38:34;7.45;;;4.53;;
43835;SDS011;39345;43.964;25.340;2023-04-24T07:41:01;9.65;;;4.72;;
43835;SDS011;39345;43.964;25.340;2023-04-24T07:43:29;7.82;;;4.45;;
43835;SDS011;39345;43.964;25.340;2023-04-24T07:45:56;10.25;;;4.50;;
43835;SDS011;39345;43.964;25.340;2023-04-24T07:48:24;8.52;;;4.50;;
43835;SDS011;39345;43.964;25.340;2023-04-24T07:50:53;8.43;;;4.55;;
43835;SDS011;39345;43.964;25.340;2023-04-24T07:53:21;6.13;;;4.38;;
43835;SDS011;39345;43.964;25.340;2023-04-24T07:55:48;8.60;;;4.30;;
43835;SDS011;39345;43.964;25.340;2023-04-24T07:58:16;7.30;;;4.70;;
43835;SDS011;39345;43.964;25.340;2023-04-24T08:00:43;11.18;;;7.10;;
43835;SDS011;39345;43.964;25.340;2023-04-24T08:03:11;11.50;;;6.18;;
43835;SDS011;39345;43.964;25.340;2023-04-24T08:05:40;9.95;;;4.97;;
43835;SDS011;39345;43.964;25.340;2023-04-24T08:08:09;8.55;;;5.25;;
43835;SDS011;39345;43.964;25.340;2023-04-24T08:10:37;9.25;;;5.30;;
43835;SDS011;39345;43.964;25.340;2023-04-24T08:13:04;10.27;;;4.93;;
43835;SDS011;39345;43.964;25.340;2023-04-24T08:15:31;8.70;;;4.82;;
43835;SDS011;39345;43.964;25.340;2023-04-24T08:17:59;9.25;;;5.00;;
43835;SDS011;39345;43.964;25.340;2023-04-24T08:20:27;7.65;;;4.97;;
43835;SDS011;39345;43.964;25.340;2023-04-24T08:22:54;10.95;;;7.18;;
43835;SDS011;39345;43.964;25.340;2023-04-24T08:25:22;8.32;;;5.55;;
43835;SDS011;39345;43.964;25.340;2023-04-24T08:27:51;8.10;;;5.15;;
43835;SDS011;39345;43.964;25.340;2023-04-24T08:30:18;9.65;;;5.80;;
43835;SDS011;39345;43.964;25.340;2023-04-24T08:32:47;9.63;;;5.43;;
43835;SDS011;39345;43.964;25.340;2023-04-24T08:35:14;9.95;;;5.35;;
43835;SDS011;39345;43.964;25.340;2023-04-24T08:37:42;9.63;;;6.05;;
43835;SDS011;39345;43.964;25.340;2023-04-24T08:40:13;12.40;;;5.90;;
43835;SDS011;39345;43.964;25.340;2023-04-24T08:42:42;8.90;;;5.20;;
43835;SDS011;39345;43.964;25.340;2023-04-24T08:45:11;9.02;;;5.28;;
43835;SDS011;39345;43.964;25.340;2023-04-24T08:47:39;6.82;;;4.32;;
43835;SDS011;39345;43.964;25.340;2023-04-24T08:50:08;8.27;;;4.47;;
43835;SDS011;39345;43.964;25.340;2023-04-24T08:52:36;9.90;;;4.47;;
43835;SDS011;39345;43.964;25.340;2023-04-24T08:55:03;10.00;;;5.93;;
43835;SDS011;39345;43.964;25.340;2023-04-24T08:57:31;8.23;;;5.03;;
43835;SDS011;39345;43.964;25.340;2023-04-24T09:00:00;8.85;;;4.93;;
43835;SDS011;39345;43.964;25.340;2023-04-24T09:02:27;7.43;;;5.00;;
43835;SDS011;39345;43.964;25.340;2023-04-24T09:04:56;21.05;;;5.40;;
43835;SDS011;39345;43.964;25.340;2023-04-24T09:07:24;9.30;;;4.90;;
43835;SDS011;39345;43.964;25.340;2023-04-24T09:09:52;7.30;;;4.47;;
43835;SDS011;39345;43.964;25.340;2023-04-24T09:12:20;13.25;;;4.82;;
43835;SDS011;39345;43.964;25.340;2023-04-24T09:14:47;10.45;;;4.50;;
43835;SDS011;39345;43.964;25.340;2023-04-24T09:17:15;11.80;;;4.85;;
43835;SDS011;39345;43.964;25.340;2023-04-24T09:19:42;6.40;;;4.43;;
43835;SDS011;39345;43.964;25.340;2023-04-24T09:22:10;8.05;;;4.30;;
43835;SDS011;39345;43.964;25.340;2023-04-24T09:24:38;8.45;;;4.63;;
43835;SDS011;39345;43.964;25.340;2023-04-24T09:27:05;11.77;;;6.13;;
43835;SDS011;39345;43.964;25.340;2023-04-24T09:29:36;9.10;;;4.35;;
43835;SDS011;39345;43.964;25.340;2023-04-24T09:32:19;9.48;;;4.85;;
43835;SDS011;39345;43.964;25.340;2023-04-24T09:34:48;7.72;;;4.68;;
43835;SDS011;39345;43.964;25.340;2023-04-24T09:37:27;11.85;;;4.60;;
43835;SDS011;39345;43.964;25.340;2023-04-24T09:42:35;6.82;;;4.45;;
43835;SDS011;39345;43.964;25.340;2023-04-24T09:45:03;8.77;;;4.10;;
43835;SDS011;39345;43.964;25.340;2023-04-24T09:47:41;9.57;;;4.80;;
43835;SDS011;39345;43.964;25.340;2023-04-24T09:50:15;8.60;;;4.55;;
43835;SDS011;39345;43.964;25.340;2023-04-24T09:52:46;6.55;;;4.65;;
43835;SDS011;39345;43.964;25.340;2023-04-24T09:55:20;8.80;;;4.60;;
43835;SDS011;39345;43.964;25.340;2023-04-24T09:57:51;9.68;;;4.20;;
43835;SDS011;39345;43.964;25.340;2023-04-24T10:00:21;9.85;;;4.95;;
43835;SDS011;39345;43.964;25.340;2023-04-24T10:02:49;7.45;;;4.10;;
43835;SDS011;39345;43.964;25.340;2023-04-24T10:05:18;5.75;;;4.22;;
43835;SDS011;39345;43.964;25.340;2023-04-24T10:07:45;6.68;;;4.25;;
43835;SDS011;39345;43.964;25.340;2023-04-24T10:10:15;10.55;;;4.90;;
43835;SDS011;39345;43.964;25.340;2023-04-24T10:12:43;7.00;;;4.45;;
43835;SDS011;39345;43.964;25.340;2023-04-24T10:15:11;9.52;;;4.35;;
43835;SDS011;39345;43.964;25.340;2023-04-24T10:17:39;6.67;;;4.67;;
43835;SDS011;39345;43.964;25.340;2023-04-24T10:20:07;5.85;;;4.22;;
43835;SDS011;39345;43.964;25.340;2023-04-24T10:22:35;6.78;;;4.97;;
43835;SDS011;39345;43.964;25.340;2023-04-24T10:25:03;9.65;;;4.78;;
43835;SDS011;39345;43.964;25.340;2023-04-24T10:27:31;7.07;;;5.07;;
43835;SDS011;39345;43.964;25.340;2023-04-24T10:30:00;8.50;;;5.10;;
43835;SDS011;39345;43.964;25.340;2023-04-24T10:32:27;7.38;;;5.22;;
43835;SDS011;39345;43.964;25.340;2023-04-24T10:34:55;7.65;;;4.53;;
43835;SDS011;39345;43.964;25.340;2023-04-24T10:37:23;7.53;;;4.75;;
43835;SDS011;39345;43.964;25.340;2023-04-24T10:39:52;6.03;;;4.53;;
43835;SDS011;39345;43.964;25.340;2023-04-24T10:42:21;7.72;;;4.50;;
43835;SDS011;39345;43.964;25.340;2023-04-24T10:44:49;7.50;;;4.80;;
43835;SDS011;39345;43.964;25.340;2023-04-24T10:47:17;9.13;;;4.75;;
43835;SDS011;39345;43.964;25.340;2023-04-24T10:49:44;6.45;;;4.60;;
43835;SDS011;39345;43.964;25.340;2023-04-24T10:52:12;8.43;;;5.55;;
43835;SDS011;39345;43.964;25.340;2023-04-24T10:54:46;8.15;;;4.70;;
43835;SDS011;39345;43.964;25.340;2023-04-24T11:00:36;8.13;;;4.28;;
43835;SDS011;39345;43.964;25.340;2023-04-24T11:02:39;6.07;;;3.80;;
43835;SDS011;39345;43.964;25.340;2023-04-24T11:05:15;7.60;;;4.05;;
43835;SDS011;39345;43.964;25.340;2023-04-24T11:10:32;6.43;;;4.32;;
43835;SDS011;39345;43.964;25.340;2023-04-24T11:13:01;6.95;;;3.95;;
43835;SDS011;39345;43.964;25.340;2023-04-24T11:15:29;6.10;;;3.95;;
43835;SDS011;39345;43.964;25.340;2023-04-24T11:17:56;6.22;;;3.70;;
43835;SDS011;39345;43.964;25.340;2023-04-24T11:20:25;5.07;;;3.40;;
43835;SDS011;39345;43.964;25.340;2023-04-24T11:22:54;5.38;;;3.88;;
43835;SDS011;39345;43.964;25.340;2023-04-24T11:25:24;6.22;;;4.30;;
43835;SDS011;39345;43.964;25.340;2023-04-24T11:28:02;6.00;;;4.45;;
43835;SDS011;39345;43.964;25.340;2023-04-24T11:30:30;6.70;;;4.63;;
43835;SDS011;39345;43.964;25.340;2023-04-24T11:33:02;6.00;;;3.95;;
43835;SDS011;39345;43.964;25.340;2023-04-24T11:35:30;5.95;;;4.10;;
43835;SDS011;39345;43.964;25.340;2023-04-24T11:38:03;7.73;;;4.33;;
43835;SDS011;39345;43.964;25.340;2023-04-24T11:40:34;9.07;;;4.22;;
43835;SDS011;39345;43.964;25.340;2023-04-24T11:43:03;6.40;;;4.50;;
43835;SDS011;39345;43.964;25.340;2023-04-24T11:45:33;9.00;;;3.88;;
43835;SDS011;39345;43.964;25.340;2023-04-24T11:48:02;7.97;;;4.05;;
43835;SDS011;39345;43.964;25.340;2023-04-24T11:50:30;5.32;;;3.75;;
43835;SDS011;39345;43.964;25.340;2023-04-24T11:52:57;5.38;;;4.60;;
43835;SDS011;39345;43.964;25.340;2023-04-24T11:55:27;6.20;;;4.10;;
43835;SDS011;39345;43.964;25.340;2023-04-24T11:57:56;5.78;;;3.78;;
43835;SDS011;39345;43.964;25.340;2023-04-24T12:00:27;6.55;;;4.00;;
43835;SDS011;39345;43.964;25.340;2023-04-24T12:03:08;5.95;;;4.10;;
43835;SDS011;39345;43.964;25.340;2023-04-24T12:05:37;6.38;;;3.75;;
43835;SDS011;39345;43.964;25.340;2023-04-24T12:08:05;6.22;;;4.10;;
43835;SDS011;39345;43.964;25.340;2023-04-24T12:10:33;6.80;;;3.78;;
43835;SDS011;39345;43.964;25.340;2023-04-24T12:13:01;7.03;;;4.15;;
43835;SDS011;39345;43.964;25.340;2023-04-24T12:15:29;5.07;;;3.63;;
43835;SDS011;39345;43.964;25.340;2023-04-24T12:17:57;5.53;;;3.92;;
43835;SDS011;39345;43.964;25.340;2023-04-24T12:20:31;7.13;;;3.60;;
43835;SDS011;39345;43.964;25.340;2023-04-24T12:22:59;7.47;;;4.13;;
43835;SDS011;39345;43.964;25.340;2023-04-24T12:25:28;4.63;;;3.85;;
43835;SDS011;39345;43.964;25.340;2023-04-24T12:28:13;5.40;;;3.72;;
43835;SDS011;39345;43.964;25.340;2023-04-24T12:30:42;4.30;;;3.60;;
43835;SDS011;39345;43.964;25.340;2023-04-24T12:33:11;6.70;;;3.67;;
43835;SDS011;39345;43.964;25.340;2023-04-24T12:35:39;4.65;;;3.75;;
43835;SDS011;39345;43.964;25.340;2023-04-24T12:38:16;6.70;;;3.20;;
43835;SDS011;39345;43.964;25.340;2023-04-24T12:41:00;4.07;;;3.17;;
43835;SDS011;39345;43.964;25.340;2023-04-24T12:43:28;4.25;;;3.05;;
43835;SDS011;39345;43.964;25.340;2023-04-24T12:45:55;5.93;;;3.53;;
43835;SDS011;39345;43.964;25.340;2023-04-24T12:48:23;6.78;;;3.70;;
43835;SDS011;39345;43.964;25.340;2023-04-24T12:50:51;7.30;;;3.60;;
43835;SDS011;39345;43.964;25.340;2023-04-24T12:53:18;3.70;;;3.30;;
43835;SDS011;39345;43.964;25.340;2023-04-24T12:55:46;12.73;;;4.45;;
43835;SDS011;39345;43.964;25.340;2023-04-24T12:58:19;5.65;;;3.30;;
43835;SDS011;39345;43.964;25.340;2023-04-24T13:00:47;5.85;;;4.00;;
43835;SDS011;39345;43.964;25.340;2023-04-24T13:03:14;5.85;;;4.20;;
43835;SDS011;39345;43.964;25.340;2023-04-24T13:05:42;6.60;;;3.90;;
43835;SDS011;39345;43.964;25.340;2023-04-24T13:08:10;19.25;;;16.50;;
43835;SDS011;39345;43.964;25.340;2023-04-24T13:10:39;6.07;;;4.57;;
43835;SDS011;39345;43.964;25.340;2023-04-24T13:13:07;6.63;;;5.20;;
43835;SDS011;39345;43.964;25.340;2023-04-24T13:15:35;5.15;;;3.83;;
43835;SDS011;39345;43.964;25.340;2023-04-24T13:18:02;8.90;;;5.93;;
43835;SDS011;39345;43.964;25.340;2023-04-24T13:20:30;10.13;;;5.70;;
43835;SDS011;39345;43.964;25.340;2023-04-24T13:22:58;9.02;;;4.13;;
43835;SDS011;39345;43.964;25.340;2023-04-24T13:25:26;6.00;;;4.20;;
43835;SDS011;39345;43.964;25.340;2023-04-24T13:27:54;7.32;;;3.30;;
43835;SDS011;39345;43.964;25.340;2023-04-24T13:30:21;5.03;;;3.45;;
43835;SDS011;39345;43.964;25.340;2023-04-24T13:32:49;7.35;;;4.00;;
43835;SDS011;39345;43.964;25.340;2023-04-24T13:35:16;7.18;;;4.28;;
43835;SDS011;39345;43.964;25.340;2023-04-24T13:37:44;10.90;;;6.65;;
43835;SDS011;39345;43.964;25.340;2023-04-24T13:40:11;5.97;;;3.92;;
43835;SDS011;39345;43.964;25.340;2023-04-24T13:42:39;7.97;;;4.25;;
43835;SDS011;39345;43.964;25.340;2023-04-24T13:45:07;5.40;;;3.67;;
43835;SDS011;39345;43.964;25.340;2023-04-24T13:47:37;9.57;;;3.90;;
43835;SDS011;39345;43.964;25.340;2023-04-24T13:50:07;8.73;;;4.30;;
43835;SDS011;39345;43.964;25.340;2023-04-24T13:52:35;5.28;;;3.97;;
43835;SDS011;39345;43.964;25.340;2023-04-24T13:55:03;5.15;;;3.83;;
43835;SDS011;39345;43.964;25.340;2023-04-24T13:57:30;10.20;;;4.82;;
43835;SDS011;39345;43.964;25.340;2023-04-24T13:59:58;5.95;;;4.47;;
43835;SDS011;39345;43.964;25.340;2023-04-24T14:02:32;6.25;;;4.25;;
43835;SDS011;39345;43.964;25.340;2023-04-24T14:05:00;5.25;;;4.43;;
43835;SDS011;39345;43.964;25.340;2023-04-24T14:07:27;6.70;;;4.60;;
43835;SDS011;39345;43.964;25.340;2023-04-24T14:09:55;6.78;;;5.35;;
43835;SDS011;39345;43.964;25.340;2023-04-24T14:12:23;8.00;;;4.00;;
43835;SDS011;39345;43.964;25.340;2023-04-24T14:14:50;5.55;;;3.63;;
43835;SDS011;39345;43.964;25.340;2023-04-24T14:17:18;55.50;;;7.35;;
43835;SDS011;39345;43.964;25.340;2023-04-24T14:19:45;8.48;;;4.15;;
43835;SDS011;39345;43.964;25.340;2023-04-24T14:22:13;6.32;;;4.00;;
43835;SDS011;39345;43.964;25.340;2023-04-24T14:24:40;4.35;;;3.67;;
43835;SDS011;39345;43.964;25.340;2023-04-24T14:27:08;7.63;;;4.15;;
43835;SDS011;39345;43.964;25.340;2023-04-24T14:29:36;6.47;;;3.63;;
43835;SDS011;39345;43.964;25.340;2023-04-24T14:32:03;5.32;;;3.80;;
43835;SDS011;39345;43.964;25.340;2023-04-24T14:34:30;8.23;;;3.80;;
43835;SDS011;39345;43.964;25.340;2023-04-24T14:36:58;13.00;;;4.22;;
43835;SDS011;39345;43.964;25.340;2023-04-24T14:39:25;10.00;;;4.10;;
43835;SDS011;39345;43.964;25.340;2023-04-24T14:41:53;5.93;;;4.32;;
43835;SDS011;39345;43.964;25.340;2023-04-24T14:44:21;4.78;;;3.80;;
43835;SDS011;39345;43.964;25.340;2023-04-24T14:46:48;7.00;;;4.30;;